Terminal Aerodrome Forecast
Issued by NWS Wakefield, VA

Home | Current Version | Previous Version | Text Only | Print | Product List | Glossary On
Versions: 1 2 3 4 5 6 7 8 9 10 11 12 13 14 15 16 17 18 19 20
477
FTUS41 KAKQ 280547 RRA
TAFRIC
TAF
KRIC 280547Z 2806/2906 18004KT P6SM SCT050 OVC120
     FM281100 19004KT 4SM -SHRA BR BKN008 OVC020
     FM281500 22007KT P6SM BKN025 OVC050
     FM282100 19005KT P6SM SCT050 BKN120=

USA.gov is the U.S. government's official web portal to all federal, state and local government web resources and services.